Time;durP1;ratioP1;P1;durP2;ratioP2;P2;SDS_P1;SDS_P2;PMS_P1;PMS_P2;Temp;Humidity;BMP_temperature;BMP_pressure;BME280_temperature;BME280_humidity;BME280_pressure;Samples;Min_cycle;Max_cycle;Signal;HPM_P1;HPM_P2
2021/12/01 00:00:21;;;;;;;40.50;18.35;;;9.50;99.90;;;;;;5021705;28;20040;-76
2021/12/01 00:02:53;;;;;;;37.03;18.75;;;10.20;99.90;;;;;;5036255;28;20033;-76
2021/12/01 00:05:23;;;;;;;44.42;20.58;;;8.80;99.90;;;;;;5037864;28;20037;-76
2021/12/01 00:07:51;;;;;;;47.35;22.02;;;8.90;99.90;;;;;;5041225;28;20048;-77
2021/12/01 00:10:22;;;;;;;42.78;22.05;;;10.40;99.90;;;;;;5016873;28;20114;-76
2021/12/01 00:12:48;;;;;;;43.47;21.80;;;9.00;99.90;;;;;;5020290;28;20044;-76
2021/12/01 00:15:15;;;;;;;49.45;25.50;;;9.10;99.90;;;;;;5015579;28;20032;-75
2021/12/01 00:17:41;;;;;;;41.88;23.63;;;9.00;99.90;;;;;;5040479;28;20036;-76
2021/12/01 00:20:09;;;;;;;50.65;24.02;;;9.10;99.90;;;;;;5035026;28;20055;-76
2021/12/01 00:22:35;;;;;;;42.80;25.92;;;9.00;99.90;;;;;;5040770;28;20036;-76
2021/12/01 00:25:02;;;;;;;40.50;24.25;;;11.00;99.90;;;;;;5035729;28;20047;-75
2021/12/01 00:27:28;;;;;;;42.60;22.63;;;;;;;;;;5036934;28;20040;-76
2021/12/01 00:29:54;;;;;;;44.65;23.30;;;9.10;99.90;;;;;;5035985;28;20040;-77
2021/12/01 00:32:20;;;;;;;40.38;24.40;;;9.70;99.90;;;;;;5039107;28;20127;-75
2021/12/01 00:34:46;;;;;;;37.88;20.27;;;9.20;99.90;;;;;;5027240;28;20124;-77
2021/12/01 00:37:12;;;;;;;44.60;24.10;;;9.90;99.90;;;;;;5035672;28;20045;-75
2021/12/01 00:39:37;;;;;;;40.75;22.77;;;10.70;99.90;;;;;;5041121;28;20044;-76
2021/12/01 00:42:03;;;;;;;44.13;21.85;;;9.00;99.90;;;;;;5018834;28;20108;-76
2021/12/01 00:44:30;;;;;;;41.83;22.70;;;9.10;99.90;;;;;;5035199;28;20051;-76
2021/12/01 00:49:29;;;;;;;33.00;19.73;;;10.50;99.90;;;;;;5037661;28;20055;-77
2021/12/01 00:51:55;;;;;;;35.67;19.15;;;9.20;99.90;;;;;;5036559;28;20127;-76
2021/12/01 00:54:21;;;;;;;33.65;20.20;;;10.80;99.90;;;;;;5027362;28;20625;-76
2021/12/01 00:56:49;;;;;;;34.97;19.80;;;9.10;99.90;;;;;;5033377;28;20035;-76
2021/12/01 00:59:15;;;;;;;27.92;17.17;;;10.30;99.90;;;;;;5035848;28;20518;-75
2021/12/01 01:01:41;;;;;;;30.75;16.75;;;9.30;99.90;;;;;;5041469;28;20055;-76
2021/12/01 01:04:09;;;;;;;30.45;16.65;;;9.20;99.90;;;;;;5013784;28;20234;-75
2021/12/01 01:06:35;;;;;;;29.98;17.17;;;9.70;99.90;;;;;;5036646;28;20054;-75
2021/12/01 01:09:05;;;;;;;31.42;16.15;;;10.60;99.90;;;;;;5020094;28;20488;-75
2021/12/01 01:17:00;;;;;;;22.27;12.05;;;9.30;99.90;;;;;;5031370;28;20489;-75
2021/12/01 01:19:26;;;;;;;29.20;13.10;;;10.80;99.90;;;;;;5019734;28;20075;-74
2021/12/01 01:21:52;;;;;;;23.50;12.43;;;10.60;99.90;;;;;;5031632;28;20043;-75
2021/12/01 01:24:23;;;;;;;31.40;13.18;;;9.40;99.90;;;;;;5036109;28;20033;-75
2021/12/01 01:26:49;;;;;;;28.75;11.18;;;9.40;99.90;;;;;;5033046;28;20047;-76
2021/12/01 01:29:20;;;;;;;26.08;11.13;;;9.50;99.90;;;;;;5033562;28;20051;-75
2021/12/01 01:31:48;;;;;;;21.10;9.35;;;9.90;99.90;;;;;;5021254;28;20041;-75
2021/12/01 01:34:14;;;;;;;24.13;9.50;;;10.60;99.90;;;;;;5041075;28;20048;-74
2021/12/01 01:36:40;;;;;;;27.52;10.27;;;9.50;99.90;;;;;;5045445;28;20142;-75
2021/12/01 01:39:08;;;;;;;23.05;8.95;;;10.60;99.90;;;;;;5042338;28;20032;-75
2021/12/01 01:41:33;;;;;;;17.27;8.10;;;9.50;99.90;;;;;;5054576;28;20040;-75
2021/12/01 01:44:00;;;;;;;19.05;8.40;;;9.30;99.90;;;;;;5052534;28;20361;-75
2021/12/01 01:46:34;;;;;;;22.52;8.10;;;9.30;99.90;;;;;;5037652;28;20045;-75
2021/12/01 01:49:18;;;;;;;18.08;7.10;;;7.70;99.90;;;;;;5029875;28;20453;-74
2021/12/01 01:51:45;;;;;;;17.85;7.35;;;9.40;99.90;;;;;;5049118;28;20037;-74
2021/12/01 01:54:11;;;;;;;19.30;5.95;;;9.50;99.90;;;;;;5023233;28;20044;-74
2021/12/01 01:56:37;;;;;;;18.45;6.85;;;10.00;99.90;;;;;;5042087;28;20561;-75
2021/12/01 01:59:03;;;;;;;18.00;5.22;;;9.40;99.90;;;;;;5038949;28;20135;-75
2021/12/01 02:04:15;;;;;;;14.70;4.22;;;10.10;99.90;;;;;;5031143;28;20044;-74
2021/12/01 02:06:41;;;;;;;12.45;4.00;;;9.50;99.90;;;;;;5029064;28;20068;-75
2021/12/01 02:09:08;;;;;;;14.18;3.85;;;11.30;99.90;;;;;;5018176;28;20037;-75
2021/12/01 02:11:34;;;;;;;15.27;3.47;;;11.10;99.90;;;;;;5044075;28;20434;-74
2021/12/01 02:14:00;;;;;;;14.95;3.63;;;9.50;99.90;;;;;;5044949;28;20417;-75
2021/12/01 02:16:26;;;;;;;15.95;4.55;;;9.40;99.90;;;;;;5027655;28;20508;-75
2021/12/01 02:18:55;;;;;;;11.27;2.97;;;9.70;99.90;;;;;;5034537;28;20060;-74
2021/12/01 02:21:29;;;;;;;9.65;2.92;;;9.40;99.90;;;;;;5037299;28;20090;-74
2021/12/01 02:24:01;;;;;;;12.05;2.70;;;9.50;99.90;;;;;;5037992;28;20498;-75
2021/12/01 02:26:29;;;;;;;11.32;3.13;;;9.50;99.90;;;;;;5034913;28;20126;-75
2021/12/01 02:28:58;;;;;;;7.00;1.83;;;10.50;99.90;;;;;;5026137;28;20561;-76
2021/12/01 02:31:29;;;;;;;10.00;2.35;;;10.50;99.90;;;;;;5036548;28;20041;-75
2021/12/01 02:33:56;;;;;;;8.35;2.58;;;10.20;99.90;;;;;;5042723;28;20144;-74
2021/12/01 02:36:25;;;;;;;11.23;3.47;;;10.50;99.90;;;;;;5023171;28;20457;-75
2021/12/01 02:38:53;;;;;;;10.32;2.45;;;10.00;99.90;;;;;;5042757;28;20369;-75
2021/12/01 02:41:30;;;;;;;12.48;2.55;;;9.40;99.90;;;;;;5023455;28;20509;-75
2021/12/01 02:43:57;;;;;;;11.48;3.00;;;9.30;99.90;;;;;;5035863;28;20647;-75
2021/12/01 02:46:24;;;;;;;10.82;3.30;;;10.50;99.90;;;;;;5041437;28;20036;-75
2021/12/01 02:48:50;;;;;;;17.08;4.13;;;10.70;99.90;;;;;;5022725;28;20130;-74
2021/12/01 02:51:19;;;;;;;11.88;2.90;;;9.40;99.90;;;;;;5038359;28;20135;-75
2021/12/01 02:53:45;;;;;;;14.18;2.50;;;9.40;99.90;;;;;;5032628;28;20395;-75
2021/12/01 02:56:10;;;;;;;11.13;2.42;;;9.40;99.90;;;;;;5023469;28;20124;-74
2021/12/01 02:58:40;;;;;;;15.60;2.80;;;10.40;99.90;;;;;;5023673;28;20197;-74
2021/12/01 03:01:10;;;;;;;9.73;1.75;;;11.30;99.90;;;;;;5041231;28;20131;-74
2021/12/01 03:03:38;;;;;;;14.40;2.78;;;9.30;99.90;;;;;;5017085;28;20056;-75
2021/12/01 03:06:03;;;;;;;11.45;2.00;;;9.70;99.90;;;;;;5016548;28;20493;-74
2021/12/01 03:08:29;;;;;;;11.13;2.78;;;9.20;99.90;;;;;;5036469;28;20352;-74
2021/12/01 03:10:57;;;;;;;13.07;2.03;;;10.40;99.90;;;;;;5026031;28;20047;-74
2021/12/01 03:13:26;;;;;;;11.30;2.08;;;10.20;99.90;;;;;;5020361;28;20036;-75
2021/12/01 03:15:54;;;;;;;18.15;3.08;;;11.10;99.90;;;;;;5037754;28;20245;-74
2021/12/01 03:18:21;;;;;;;9.90;2.15;;;9.30;99.90;;;;;;5022689;28;20538;-74
2021/12/01 03:20:48;;;;;;;8.85;2.28;;;9.30;99.90;;;;;;5034710;28;20587;-75
2021/12/01 03:23:14;;;;;;;8.48;2.47;;;10.20;99.90;;;;;;5037522;28;20435;-74
2021/12/01 03:25:42;;;;;;;9.88;2.03;;;10.30;99.90;;;;;;5014934;28;20049;-75
2021/12/01 03:28:09;;;;;;;14.27;2.10;;;10.80;99.90;;;;;;5029852;28;20046;-74
2021/12/01 03:30:37;;;;;;;14.02;2.58;;;9.50;99.90;;;;;;5022219;28;20125;-75
2021/12/01 03:33:05;;;;;;;14.27;2.85;;;11.00;99.90;;;;;;5036733;28;20107;-74
2021/12/01 03:35:31;;;;;;;14.55;2.97;;;10.10;99.90;;;;;;5042846;28;20037;-74
2021/12/01 03:37:57;;;;;;;18.13;2.70;;;10.40;99.90;;;;;;5024451;28;20044;-75
2021/12/01 03:40:23;;;;;;;18.38;2.75;;;9.40;99.90;;;;;;5037285;28;20147;-75
2021/12/01 03:42:49;;;;;;;20.50;3.72;;;10.00;99.90;;;;;;5034146;28;20514;-75
2021/12/01 03:45:15;;;;;;;21.67;3.58;;;9.30;99.90;;;;;;5036587;28;20056;-75
2021/12/01 03:47:42;;;;;;;17.20;2.78;;;10.40;99.90;;;;;;5039034;28;20044;-75
2021/12/01 03:50:10;;;;;;;23.92;4.55;;;10.20;99.90;;;;;;5033794;28;20033;-75
2021/12/01 03:52:36;;;;;;;15.00;2.50;;;9.40;99.90;;;;;;5035560;28;20037;-75
2021/12/01 03:55:04;;;;;;;22.75;3.40;;;9.30;99.90;;;;;;5038007;28;20039;-75
2021/12/01 03:57:30;;;;;;;28.80;4.20;;;9.30;99.90;;;;;;5034976;28;20583;-75
2021/12/01 03:59:56;;;;;;;25.42;5.28;;;9.20;99.90;;;;;;5033911;28;20102;-76
2021/12/01 04:02:21;;;;;;;28.38;3.95;;;9.30;99.90;;;;;;5021266;28;20036;-75
2021/12/01 04:04:49;;;;;;;21.50;3.38;;;9.50;99.90;;;;;;5014696;28;20505;-75
2021/12/01 04:07:17;;;;;;;20.83;2.85;;;9.30;99.90;;;;;;5041848;28;20204;-75
2021/12/01 04:09:44;;;;;;;18.00;3.28;;;10.50;99.90;;;;;;5018898;28;20651;-75
2021/12/01 04:12:11;;;;;;;18.00;3.03;;;;;;;;;;5036224;28;20033;-75
2021/12/01 04:14:38;;;;;;;26.42;3.35;;;9.30;99.90;;;;;;5012981;28;20071;-75
2021/12/01 04:17:05;;;;;;;24.25;2.92;;;9.40;99.90;;;;;;5022951;28;20099;-75
2021/12/01 04:19:31;;;;;;;18.95;2.80;;;9.30;99.90;;;;;;5032106;28;20041;-74
2021/12/01 04:21:57;;;;;;;13.10;2.72;;;9.30;99.90;;;;;;5038280;28;20486;-75
2021/12/01 04:24:23;;;;;;;21.23;3.65;;;10.30;99.90;;;;;;5041280;28;20520;-75
2021/12/01 04:26:49;;;;;;;22.25;3.10;;;9.80;99.90;;;;;;5033240;28;20040;-76
2021/12/01 04:29:17;;;;;;;13.07;3.13;;;9.10;99.90;;;;;;5033720;28;20067;-75
2021/12/01 04:31:43;;;;;;;16.05;2.25;;;11.00;99.90;;;;;;5037324;28;20539;-76
2021/12/01 04:34:09;;;;;;;9.85;2.22;;;9.20;99.90;;;;;;5021449;28;20045;-77
2021/12/01 04:36:39;;;;;;;12.55;2.50;;;9.30;99.90;;;;;;5035202;28;20042;-76
2021/12/01 04:39:08;;;;;;;14.30;2.22;;;10.20;99.90;;;;;;5021450;28;20047;-76
2021/12/01 04:41:39;;;;;;;11.60;2.30;;;7.50;99.90;;;;;;5020516;28;20045;-76
2021/12/01 04:44:14;;;;;;;10.05;2.45;;;10.40;99.90;;;;;;5020328;28;20097;-75
2021/12/01 04:46:43;;;;;;;9.55;2.55;;;10.50;99.90;;;;;;5017602;28;20052;-76
2021/12/01 04:49:12;;;;;;;11.05;2.30;;;10.00;99.90;;;;;;5019663;28;20044;-77
2021/12/01 04:51:44;;;;;;;7.95;2.15;;;9.20;99.90;;;;;;5018490;28;20102;-76
2021/12/01 04:54:12;;;;;;;10.98;2.47;;;11.00;99.90;;;;;;5017772;28;20045;-76
2021/12/01 04:56:41;;;;;;;9.52;2.55;;;10.10;99.90;;;;;;5019861;28;20044;-76
2021/12/01 04:59:08;;;;;;;6.90;2.03;;;9.10;99.90;;;;;;5035980;28;20040;-76
2021/12/01 05:01:35;;;;;;;8.70;2.08;;;10.40;99.90;;;;;;5033413;28;20486;-76
2021/12/01 05:04:01;;;;;;;3.17;1.63;;;9.40;99.90;;;;;;5017449;28;20094;-77
2021/12/01 05:06:32;;;;;;;6.63;2.03;;;9.30;99.90;;;;;;5039980;28;20033;-76
2021/12/01 05:09:00;;;;;;;5.65;2.05;;;9.30;99.90;;;;;;5036459;28;20044;-76
2021/12/01 05:11:29;;;;;;;6.30;2.17;;;9.50;99.90;;;;;;5036545;28;20055;-77
2021/12/01 05:13:58;;;;;;;3.17;1.88;;;;;;;;;;5018246;28;20044;-76
2021/12/01 05:16:43;;;;;;;3.90;1.85;;;9.20;99.90;;;;;;5020768;28;20492;-75
2021/12/01 05:19:11;;;;;;;3.40;1.85;;;9.30;99.90;;;;;;5040974;28;20520;-76
2021/12/01 05:21:40;;;;;;;3.83;1.38;;;9.00;99.90;;;;;;5031489;28;20083;-76
2021/12/01 05:24:06;;;;;;;2.35;1.10;;;11.20;99.90;;;;;;5033710;28;20037;-76
2021/12/01 05:26:32;;;;;;;1.63;0.85;;;9.20;99.90;;;;;;5033632;28;20040;-76
2021/12/01 05:28:58;;;;;;;2.28;1.30;;;9.00;99.90;;;;;;5015911;28;20223;-78
2021/12/01 05:31:24;;;;;;;2.15;1.20;;;9.10;99.90;;;;;;5042475;28;20056;-78
2021/12/01 05:33:50;;;;;;;3.38;1.20;;;9.20;99.90;;;;;;5014006;28;20053;-77
2021/12/01 05:36:16;;;;;;;1.95;1.05;;;9.00;99.90;;;;;;5016301;28;20049;-76
2021/12/01 05:38:42;;;;;;;1.40;0.70;;;9.00;99.90;;;;;;5033942;28;20580;-77
2021/12/01 05:41:09;;;;;;;1.10;0.70;;;;;;;;;;5039228;28;20044;-77
2021/12/01 05:43:34;;;;;;;1.85;0.93;;;9.20;99.90;;;;;;5031145;28;20427;-77
2021/12/01 05:46:00;;;;;;;1.63;0.85;;;9.10;99.90;;;;;;5014625;28;20128;-77
2021/12/01 05:48:26;;;;;;;2.30;1.17;;;9.10;99.90;;;;;;5042423;28;21078;-78
2021/12/01 05:50:52;;;;;;;1.92;1.20;;;9.60;99.90;;;;;;5027063;28;20044;-77
2021/12/01 05:53:18;;;;;;;2.50;1.20;;;;;;;;;;5038927;28;20049;-76
2021/12/01 05:55:44;;;;;;;2.15;1.30;;;8.80;99.90;;;;;;5020356;28;20139;-76
2021/12/01 05:58:12;;;;;;;1.88;1.17;;;9.60;99.90;;;;;;5015607;28;20572;-76
2021/12/01 06:00:38;;;;;;;2.70;1.42;;;11.00;99.90;;;;;;5040478;28;20080;-77
2021/12/01 06:03:04;;;;;;;2.47;1.25;;;9.90;99.90;;;;;;5041389;28;20397;-76
2021/12/01 06:05:29;;;;;;;2.28;1.40;;;8.90;99.90;;;;;;5033838;28;20056;-75
2021/12/01 06:07:58;;;;;;;3.45;1.70;;;8.80;99.90;;;;;;5036876;28;20056;-75
2021/12/01 06:10:24;;;;;;;2.92;1.70;;;9.00;99.90;;;;;;5034075;28;20069;-75
2021/12/01 06:12:54;;;;;;;8.20;2.60;;;9.00;99.90;;;;;;5017072;28;20517;-76
2021/12/01 06:15:20;;;;;;;4.95;2.85;;;8.70;99.90;;;;;;5018679;28;20055;-76
2021/12/01 06:17:46;;;;;;;5.45;2.35;;;10.70;99.90;;;;;;5028953;28;20111;-75
2021/12/01 06:20:13;;;;;;;5.00;2.75;;;9.80;99.90;;;;;;5033837;28;20044;-76
2021/12/01 06:22:42;;;;;;;4.35;2.55;;;8.90;99.90;;;;;;5014063;28;20114;-75
2021/12/01 06:25:08;;;;;;;4.40;2.58;;;10.30;99.90;;;;;;5034186;28;20385;-77
2021/12/01 06:27:34;;;;;;;4.50;2.38;;;8.80;99.90;;;;;;5034389;28;20483;-76
2021/12/01 06:30:00;;;;;;;4.55;2.83;;;10.20;99.90;;;;;;5039445;28;20413;-77
2021/12/01 06:32:29;;;;;;;6.20;2.63;;;10.60;99.90;;;;;;5032111;28;20045;-76
2021/12/01 06:34:54;;;;;;;6.70;2.80;;;7.80;99.90;;;;;;5016676;28;20045;-76
2021/12/01 06:37:20;;;;;;;5.20;3.03;;;9.30;99.90;;;;;;5036891;28;20044;-76
2021/12/01 06:39:46;;;;;;;3.90;2.13;;;9.80;99.90;;;;;;5016198;28;20052;-77
2021/12/01 06:42:13;;;;;;;4.75;2.60;;;10.00;99.90;;;;;;5018471;28;20395;-76
2021/12/01 06:44:42;;;;;;;4.72;2.65;;;8.60;99.90;;;;;;5034260;28;20063;-76
2021/12/01 06:47:10;;;;;;;5.20;2.47;;;8.70;99.90;;;;;;5020361;28;20041;-77
2021/12/01 06:49:35;;;;;;;4.15;2.65;;;10.10;99.90;;;;;;5042053;28;20045;-77
2021/12/01 06:52:01;;;;;;;4.72;2.53;;;8.70;99.90;;;;;;5022064;28;20055;-77
2021/12/01 06:54:27;;;;;;;4.78;2.80;;;8.80;99.90;;;;;;5020416;28;20037;-77
2021/12/01 06:56:53;;;;;;;4.65;2.83;;;8.50;99.90;;;;;;5024049;28;20041;-78
2021/12/01 06:59:19;;;;;;;5.65;3.35;;;8.60;99.90;;;;;;5018136;28;20029;-75
2021/12/01 07:01:48;;;;;;;6.80;3.60;;;8.80;99.90;;;;;;5039511;28;20048;-77
2021/12/01 07:04:15;;;;;;;4.78;2.78;;;9.40;99.90;;;;;;5017126;28;20053;-75
2021/12/01 07:06:41;;;;;;;4.50;3.00;;;8.80;99.90;;;;;;5043886;28;20048;-77
2021/12/01 07:09:07;;;;;;;9.02;4.00;;;8.80;99.90;;;;;;5036189;28;20045;-78
2021/12/01 07:11:32;;;;;;;7.93;3.72;;;9.00;99.90;;;;;;5035235;28;20091;-76
2021/12/01 07:13:58;;;;;;;9.75;4.25;;;10.50;99.90;;;;;;5020355;28;20089;-76
2021/12/01 07:16:24;;;;;;;5.95;3.83;;;8.80;99.90;;;;;;5033815;28;20060;-75
2021/12/01 07:18:50;;;;;;;5.57;3.28;;;8.80;99.90;;;;;;5036888;28;20045;-76
2021/12/01 07:21:15;;;;;;;6.95;3.63;;;10.10;99.90;;;;;;5037764;28;20076;-76
2021/12/01 07:23:43;;;;;;;8.85;4.88;;;8.80;99.90;;;;;;5036964;28;20089;-77
2021/12/01 07:26:09;;;;;;;6.80;3.38;;;8.70;99.90;;;;;;5018645;28;20037;-75
2021/12/01 07:28:35;;;;;;;8.25;3.67;;;9.40;99.90;;;;;;5020338;28;20478;-76
2021/12/01 07:31:02;;;;;;;6.72;4.05;;;9.00;99.90;;;;;;5015385;28;20525;-75
2021/12/01 07:33:28;;;;;;;8.13;3.42;;;10.20;99.90;;;;;;5040028;28;20118;-76
2021/12/01 07:35:54;;;;;;;13.07;3.92;;;10.00;99.90;;;;;;5042247;28;21357;-75
2021/12/01 07:38:20;;;;;;;6.25;3.40;;;9.00;99.90;;;;;;5043142;28;20516;-76
2021/12/01 07:40:48;;;;;;;13.30;4.30;;;9.10;99.90;;;;;;5039663;28;20044;-76
2021/12/01 07:43:13;;;;;;;9.45;4.85;;;10.60;99.90;;;;;;5037085;28;20076;-75
2021/12/01 07:45:43;;;;;;;6.22;4.18;;;8.90;99.90;;;;;;5025832;28;20075;-76
2021/12/01 07:48:12;;;;;;;10.25;4.40;;;9.00;99.90;;;;;;5020441;28;20478;-76
2021/12/01 07:50:39;;;;;;;15.80;5.25;;;9.10;99.90;;;;;;5043235;28;20041;-76
2021/12/01 07:53:04;;;;;;;9.88;4.80;;;8.90;99.90;;;;;;5043614;28;20045;-75
2021/12/01 07:55:30;;;;;;;13.55;3.67;;;;;;;;;;5020773;28;20103;-75
2021/12/01 07:57:56;;;;;;;13.27;4.40;;;9.10;99.90;;;;;;5043558;28;20056;-75
2021/12/01 08:00:22;;;;;;;10.65;5.03;;;9.10;99.90;;;;;;5042464;28;20057;-76
2021/12/01 08:02:48;;;;;;;8.00;3.78;;;9.10;99.90;;;;;;5035430;28;20102;-76
2021/12/01 08:05:14;;;;;;;10.65;4.40;;;10.30;99.90;;;;;;5034898;28;20460;-75
2021/12/01 08:07:40;;;;;;;12.65;3.88;;;9.20;99.90;;;;;;5020104;28;20049;-75
2021/12/01 08:10:07;;;;;;;9.13;4.30;;;9.10;99.90;;;;;;5016045;28;20049;-76
2021/12/01 08:12:34;;;;;;;11.10;3.25;;;;;;;;;;5034077;28;20045;-75
2021/12/01 08:15:02;;;;;;;7.93;3.63;;;9.00;99.90;;;;;;5018970;28;20049;-76
2021/12/01 08:17:32;;;;;;;7.60;3.63;;;9.10;99.90;;;;;;5016992;28;20064;-75
2021/12/01 08:19:58;;;;;;;9.10;3.85;;;9.00;99.90;;;;;;5035764;28;20045;-76
2021/12/01 08:22:28;;;;;;;11.65;4.47;;;10.20;99.90;;;;;;5033233;28;20052;-76
2021/12/01 08:24:57;;;;;;;10.27;4.88;;;9.00;99.90;;;;;;5018911;28;20402;-76
2021/12/01 08:27:24;;;;;;;14.10;3.83;;;8.90;99.90;;;;;;5021780;28;20040;-76
2021/12/01 08:29:50;;;;;;;7.35;2.45;;;8.80;99.90;;;;;;5015420;28;20575;-77
2021/12/01 08:32:16;;;;;;;8.30;1.98;;;9.00;99.90;;;;;;5039423;28;20040;-76
2021/12/01 08:34:44;;;;;;;7.75;1.83;;;10.20;99.90;;;;;;5037230;28;20044;-76
2021/12/01 08:37:10;;;;;;;9.45;1.70;;;8.70;99.90;;;;;;5014005;28;20065;-76
2021/12/01 08:39:39;;;;;;;10.20;2.10;;;8.70;99.90;;;;;;5023328;28;20521;-76
2021/12/01 08:42:05;;;;;;;14.40;2.25;;;8.70;99.90;;;;;;5035274;28;20042;-75
2021/12/01 08:44:31;;;;;;;9.60;1.63;;;;;;;;;;5019909;28;20401;-75
2021/12/01 08:47:00;;;;;;;9.52;2.33;;;8.70;99.90;;;;;;5019002;28;20053;-76
2021/12/01 08:49:26;;;;;;;10.60;1.85;;;8.60;99.90;;;;;;5036916;28;20055;-76
2021/12/01 08:51:51;;;;;;;17.40;1.95;;;8.60;99.90;;;;;;5021000;28;20139;-76
2021/12/01 08:54:17;;;;;;;11.65;1.80;;;8.60;99.90;;;;;;5021239;28;20078;-75
2021/12/01 08:56:43;;;;;;;9.50;2.75;;;10.70;99.90;;;;;;5036610;28;20028;-76
2021/12/01 08:59:08;;;;;;;13.65;3.10;;;8.60;99.90;;;;;;5011338;28;20045;-75
2021/12/01 09:01:37;;;;;;;11.52;1.80;;;8.70;99.90;;;;;;5009889;28;20061;-74
2021/12/01 09:04:02;;;;;;;9.23;1.73;;;8.80;99.90;;;;;;5052131;28;20400;-75
2021/12/01 09:06:28;;;;;;;9.38;1.42;;;8.70;99.90;;;;;;5035732;28;20025;-74
2021/12/01 09:08:54;;;;;;;12.65;1.90;;;8.80;99.90;;;;;;5019558;28;20106;-74
2021/12/01 09:11:20;;;;;;;12.48;2.97;;;8.60;99.90;;;;;;5034611;28;20113;-74
2021/12/01 09:13:46;;;;;;;6.28;1.33;;;9.60;99.90;;;;;;5016843;28;20045;-74
2021/12/01 09:16:13;;;;;;;12.43;3.38;;;8.70;99.90;;;;;;5032772;28;20174;-74
2021/12/01 09:18:40;;;;;;;9.20;1.17;;;8.50;99.90;;;;;;5014237;28;20531;-73
2021/12/01 09:21:06;;;;;;;12.93;1.88;;;8.40;99.90;;;;;;5033826;28;20060;-74
2021/12/01 09:23:34;;;;;;;8.38;1.42;;;8.60;99.90;;;;;;5016546;28;20049;-74
2021/12/01 09:25:59;;;;;;;9.88;1.55;;;9.90;99.90;;;;;;5015979;28;20041;-74
2021/12/01 09:28:26;;;;;;;12.90;1.70;;;8.40;99.90;;;;;;5014638;28;20094;-76
2021/12/01 09:30:54;;;;;;;18.25;2.47;;;8.90;99.90;;;;;;5019189;28;20044;-75
2021/12/01 09:33:20;;;;;;;14.25;1.67;;;8.20;99.90;;;;;;5032099;28;21393;-75
2021/12/01 09:35:46;;;;;;;8.15;1.80;;;9.40;99.90;;;;;;5043084;28;20131;-75
2021/12/01 09:38:14;;;;;;;15.38;1.88;;;8.30;99.90;;;;;;5037373;28;20052;-75
2021/12/01 09:40:45;;;;;;;15.63;1.75;;;9.80;99.90;;;;;;5029003;28;20044;-77
2021/12/01 09:43:12;;;;;;;8.30;1.38;;;8.40;99.90;;;;;;5018072;28;20127;-75
2021/12/01 09:45:40;;;;;;;18.63;1.30;;;8.10;99.90;;;;;;5018710;28;20120;-75
2021/12/01 09:48:06;;;;;;;16.45;2.00;;;8.10;99.90;;;;;;5034947;28;20025;-76
2021/12/01 09:50:34;;;;;;;18.05;1.75;;;8.40;99.90;;;;;;5021096;28;23801;-76
2021/12/01 09:53:00;;;;;;;12.40;1.92;;;8.40;99.90;;;;;;5032916;28;20106;-75
2021/12/01 09:55:26;;;;;;;15.82;3.28;;;10.30;99.90;;;;;;5045349;28;20527;-75
2021/12/01 09:58:04;;;;;;;13.10;1.90;;;10.50;99.90;;;;;;5035832;28;20083;-74
2021/12/01 10:00:31;;;;;;;15.68;3.15;;;10.60;99.90;;;;;;5041439;28;20036;-75
2021/12/01 10:02:57;;;;;;;21.15;3.03;;;8.90;99.90;;;;;;5034485;28;20047;-74
2021/12/01 10:06:13;;;;;;;18.23;2.33;;;9.20;99.90;;;;;;5040341;28;20045;-76
2021/12/01 10:08:45;;;;;;;17.05;3.42;;;9.30;99.90;;;;;;4964626;28;20046;-75
2021/12/01 10:11:21;;;;;;;18.02;2.97;;;9.10;99.90;;;;;;4965966;28;20404;-74
2021/12/01 10:13:57;;;;;;;24.75;4.38;;;10.60;99.90;;;;;;4981884;28;20047;-75
2021/12/01 10:16:26;;;;;;;23.85;4.18;;;9.00;99.90;;;;;;4964085;28;20039;-75
2021/12/01 10:18:54;;;;;;;18.67;2.40;;;11.20;99.90;;;;;;4965039;28;20051;-75
2021/12/01 10:21:33;;;;;;;21.27;2.65;;;8.80;99.90;;;;;;4964455;28;20057;-76
2021/12/01 10:24:12;;;;;;;18.30;3.03;;;8.80;99.90;;;;;;4963078;28;20046;-75
2021/12/01 10:26:39;;;;;;;17.05;2.40;;;8.60;99.90;;;;;;4963060;28;20043;-76
2021/12/01 10:29:08;;;;;;;20.70;3.53;;;8.50;99.90;;;;;;4979151;28;20042;-76
2021/12/01 10:31:44;;;;;;;23.80;3.83;;;8.40;99.90;;;;;;4963500;28;20034;-76
2021/12/01 10:34:20;;;;;;;24.15;3.03;;;8.50;99.90;;;;;;4950143;28;20086;-75
2021/12/01 10:36:49;;;;;;;17.83;2.67;;;8.10;99.90;;;;;;4967585;28;20107;-75
2021/12/01 10:39:16;;;;;;;18.08;2.85;;;8.40;99.90;;;;;;4960921;28;20038;-75
2021/12/01 10:41:43;;;;;;;19.73;2.25;;;9.90;99.90;;;;;;4967688;28;20055;-74
2021/12/01 10:44:12;;;;;;;15.82;2.88;;;9.50;99.90;;;;;;4966150;28;20034;-74
2021/12/01 10:46:48;;;;;;;13.02;2.15;;;8.40;99.90;;;;;;5041341;28;20049;-75
2021/12/01 10:49:30;;;;;;;16.95;2.47;;;8.40;99.90;;;;;;5034126;28;20040;-74
2021/12/01 10:51:56;;;;;;;11.95;1.73;;;8.50;99.90;;;;;;5041449;28;20040;-74
2021/12/01 10:54:21;;;;;;;15.90;3.00;;;8.60;99.90;;;;;;5035515;28;20124;-74
2021/12/01 10:57:20;;;;;;;11.95;1.75;;;8.50;99.90;;;;;;5019986;28;20591;-74
2021/12/01 10:59:49;;;;;;;10.77;1.65;;;8.70;99.90;;;;;;5033906;28;20221;-74
2021/12/01 11:02:16;;;;;;;13.18;2.58;;;9.50;99.90;;;;;;5036608;28;20099;-74
2021/12/01 11:04:47;;;;;;;10.50;1.70;;;10.00;99.90;;;;;;5037242;28;20132;-74
2021/12/01 11:07:31;;;;;;;16.65;3.00;;;8.60;99.90;;;;;;5041999;28;20040;-73
2021/12/01 11:10:18;;;;;;;16.17;2.78;;;8.30;99.90;;;;;;5032766;28;20091;-74
2021/12/01 11:12:46;;;;;;;12.60;2.42;;;8.50;99.90;;;;;;5021864;28;20066;-75
2021/12/01 11:15:20;;;;;;;15.68;2.50;;;8.60;99.90;;;;;;5037436;28;20049;-74
2021/12/01 11:17:49;;;;;;;20.63;2.83;;;8.40;99.90;;;;;;5027605;28;20037;-73
2021/12/01 11:20:36;;;;;;;15.40;2.53;;;8.30;99.90;;;;;;5043997;28;20041;-74
2021/12/01 11:23:14;;;;;;;14.30;2.67;;;10.50;99.90;;;;;;5038465;28;20451;-74
2021/12/01 11:25:42;;;;;;;20.17;2.85;;;8.50;99.90;;;;;;5062845;28;20037;-74
2021/12/01 11:28:13;;;;;;;20.90;4.20;;;9.40;99.90;;;;;;5028371;28;20043;-74
2021/12/01 11:30:41;;;;;;;17.13;3.00;;;8.40;99.90;;;;;;5041789;28;20094;-75
2021/12/01 11:33:11;;;;;;;19.85;3.20;;;8.60;99.90;;;;;;5026111;28;20436;-74
2021/12/01 11:35:38;;;;;;;22.67;3.33;;;8.40;99.90;;;;;;5040155;28;20561;-74
2021/12/01 11:38:05;;;;;;;23.75;3.75;;;8.40;99.90;;;;;;5021390;28;20649;-73
2021/12/01 11:40:31;;;;;;;22.45;3.63;;;8.40;99.90;;;;;;5040395;28;20072;-74
2021/12/01 11:42:58;;;;;;;27.63;5.28;;;9.10;99.90;;;;;;5039160;28;20041;-73
2021/12/01 11:45:26;;;;;;;17.45;3.10;;;8.20;99.90;;;;;;5022386;28;20501;-74
2021/12/01 11:47:53;;;;;;;25.65;5.88;;;;;;;;;;5023275;28;20086;-74
2021/12/01 11:50:32;;;;;;;19.55;4.15;;;8.20;99.90;;;;;;5032268;28;20132;-74
2021/12/01 11:53:20;;;;;;;20.02;3.95;;;8.10;99.90;;;;;;5040347;28;20040;-73
2021/12/01 11:56:02;;;;;;;46.42;7.38;;;8.10;99.90;;;;;;4949874;28;20245;-74
2021/12/01 11:58:47;;;;;;;25.10;3.78;;;8.20;99.90;;;;;;4966599;28;20073;-74
2021/12/01 12:01:44;;;;;;;22.02;4.18;;;8.00;99.90;;;;;;4965257;28;20502;-74
2021/12/01 12:04:12;;;;;;;27.65;5.00;;;8.00;99.90;;;;;;4874626;29;20055;-73
2021/12/01 12:07:06;;;;;;;11.48;3.08;;;7.90;99.90;;;;;;4889654;29;20048;-73
2021/12/01 12:09:33;;;;;;;14.57;2.95;;;8.00;99.90;;;;;;4849987;29;20053;-74
2021/12/01 12:12:20;;;;;;;22.77;4.25;;;8.50;99.90;;;;;;4849578;29;20049;-74
2021/12/01 12:14:46;;;;;;;16.02;2.85;;;8.00;99.90;;;;;;4760924;29;20055;-74
2021/12/01 12:17:16;;;;;;;26.30;4.93;;;8.10;99.90;;;;;;4761457;29;20066;-74
2021/12/01 12:20:07;;;;;;;15.98;2.90;;;8.30;99.90;;;;;;4761489;29;20063;-75
2021/12/01 12:22:41;;;;;;;18.17;2.30;;;8.00;99.90;;;;;;4760557;29;20485;-73
2021/12/01 12:25:11;;;;;;;20.95;3.97;;;8.10;99.90;;;;;;4760350;29;20057;-74
2021/12/01 12:27:46;;;;;;;21.50;2.85;;;9.40;99.90;;;;;;4761616;29;20623;-75
2021/12/01 12:30:39;;;;;;;13.75;2.50;;;8.00;99.90;;;;;;4762523;29;20074;-74
2021/12/01 12:33:43;;;;;;;20.50;3.53;;;7.90;99.90;;;;;;4805804;29;20110;-75
2021/12/01 12:36:37;;;;;;;18.05;3.47;;;8.00;99.90;;;;;;4777281;30;20051;-74
2021/12/01 12:39:18;;;;;;;15.25;2.75;;;7.80;99.90;;;;;;4776581;30;20064;-73
2021/12/01 12:42:15;;;;;;;10.52;2.45;;;8.00;99.90;;;;;;4816618;29;20085;-74
2021/12/01 12:44:58;;;;;;;10.80;2.17;;;7.80;99.90;;;;;;4815130;29;20042;-73
2021/12/01 12:47:39;;;;;;;13.32;2.95;;;7.70;99.90;;;;;;4832347;29;20053;-73
2021/12/01 12:50:18;;;;;;;11.88;2.22;;;7.70;99.90;;;;;;4833886;29;20052;-73
2021/12/01 12:52:50;;;;;;;12.98;2.83;;;7.60;99.90;;;;;;4896341;29;20054;-73
2021/12/01 12:55:22;;;;;;;12.50;2.17;;;7.80;99.90;;;;;;4888717;29;20421;-74
2021/12/01 12:58:17;;;;;;;15.18;2.40;;;7.70;99.90;;;;;;4884492;29;20243;-73
2021/12/01 13:00:47;;;;;;;14.13;2.53;;;7.70;99.90;;;;;;4840672;29;20567;-73
2021/12/01 13:03:38;;;;;;;9.18;1.85;;;7.70;99.90;;;;;;4843806;29;20065;-73
2021/12/01 13:06:08;;;;;;;14.37;2.30;;;7.70;99.90;;;;;;4809426;29;20051;-74
2021/12/01 13:08:39;;;;;;;10.35;1.67;;;7.80;99.90;;;;;;4814857;29;20539;-72
2021/12/01 13:11:10;;;;;;;15.73;1.90;;;7.70;99.90;;;;;;4821068;29;20050;-73